Time;durP1;ratioP1;P1;durP2;ratioP2;P2;SDS_P1;SDS_P2;PMS_P1;PMS_P2;Temp;Humidity;BMP_temperature;BMP_pressure;BME280_temperature;BME280_humidity;BME280_pressure;Samples;Min_cycle;Max_cycle;Signal;HPM_P1;HPM_P2
2023/01/01 00:00:00;;;;;;;57.83;44.47;;;14.20;96.70;;;;;;4893273;29;20060;-73
2023/01/01 00:02:36;;;;;;;48.90;39.25;;;14.10;96.70;;;;;;4919576;29;20071;-73
2023/01/01 00:05:05;;;;;;;52.30;40.95;;;14.00;96.70;;;;;;4901572;29;20168;-73
2023/01/01 00:07:35;;;;;;;65.97;50.38;;;14.10;96.70;;;;;;4923257;29;20048;-73
2023/01/01 00:12:50;;;;;;;;;;;14.20;96.70;;;;;;4899189;29;20052;-73
2023/01/01 00:15:18;;;;;;;50.80;40.42;;;14.20;96.70;;;;;;4911506;29;19957;-72
2023/01/01 00:17:46;;;;;;;54.58;41.92;;;14.20;96.70;;;;;;4923084;29;20054;-73
2023/01/01 00:20:16;;;;;;;54.17;40.95;;;14.20;96.70;;;;;;4911995;29;20036;-73
2023/01/01 00:22:45;;;;;;;44.38;35.83;;;14.30;96.70;;;;;;4911991;29;20388;-73
2023/01/01 00:25:23;;;;;;;51.65;35.63;;;14.30;96.70;;;;;;4895946;29;20153;-73
2023/01/01 00:27:51;;;;;;;47.95;37.58;;;14.20;96.70;;;;;;4919579;29;20096;-72
2023/01/01 00:30:19;;;;;;;49.22;36.08;;;14.30;96.70;;;;;;4922831;29;20056;-73
2023/01/01 00:32:47;;;;;;;49.78;35.58;;;14.30;96.70;;;;;;4911537;29;20051;-73
2023/01/01 00:35:23;;;;;;;49.15;36.45;;;14.20;96.70;;;;;;4911554;29;20414;-73
2023/01/01 00:37:54;;;;;;;52.30;39.78;;;14.30;96.70;;;;;;4893056;29;20148;-72
2023/01/01 00:40:22;;;;;;;53.42;40.53;;;14.30;96.70;;;;;;4928347;29;20071;-73
2023/01/01 00:42:50;;;;;;;59.20;43.65;;;14.30;96.70;;;;;;4911098;29;20074;-73
2023/01/01 00:45:18;;;;;;;60.17;42.85;;;14.30;96.70;;;;;;4909948;29;20063;-74
2023/01/01 00:47:50;;;;;;;52.67;40.92;;;14.20;96.70;;;;;;4895621;29;20600;-73
2023/01/01 00:50:19;;;;;;;49.15;37.50;;;14.20;96.70;;;;;;4914545;29;20054;-73
2023/01/01 00:52:47;;;;;;;53.17;38.97;;;14.20;96.70;;;;;;4912301;29;20466;-73
2023/01/01 00:55:17;;;;;;;49.10;35.97;;;14.20;96.70;;;;;;4911403;29;20043;-73
2023/01/01 00:57:45;;;;;;;40.55;30.95;;;14.20;96.70;;;;;;4896938;29;20056;-73
2023/01/01 01:00:17;;;;;;;38.30;28.50;;;14.10;96.70;;;;;;4893109;29;20040;-73
2023/01/01 01:02:45;;;;;;;33.58;24.48;;;14.10;96.70;;;;;;4910265;29;20537;-72
2023/01/01 01:05:14;;;;;;;25.27;18.65;;;14.10;96.70;;;;;;4915922;29;20083;-73
2023/01/01 01:07:42;;;;;;;21.23;16.65;;;14.10;96.70;;;;;;4907985;29;20044;-73
2023/01/01 01:10:11;;;;;;;20.33;15.70;;;14.10;96.70;;;;;;4910278;29;20052;-73
2023/01/01 01:12:40;;;;;;;18.70;15.07;;;14.10;96.70;;;;;;4922581;29;20066;-73
2023/01/01 01:15:09;;;;;;;16.58;13.88;;;14.00;96.70;;;;;;4924485;29;20054;-73
2023/01/01 01:17:38;;;;;;;21.10;15.00;;;14.10;96.70;;;;;;4886172;29;20060;-73
2023/01/01 01:20:07;;;;;;;22.55;16.85;;;14.00;96.70;;;;;;4927979;29;20044;-73
2023/01/01 01:22:35;;;;;;;24.63;19.08;;;14.00;96.70;;;;;;4897311;29;20054;-73
2023/01/01 01:25:04;;;;;;;25.52;16.63;;;14.00;96.70;;;;;;4915734;29;20062;-73
2023/01/01 01:27:33;;;;;;;27.17;19.23;;;14.00;96.70;;;;;;4927951;29;20122;-73
2023/01/01 01:30:03;;;;;;;25.52;18.50;;;14.10;96.70;;;;;;4926672;29;20463;-73
2023/01/01 01:32:31;;;;;;;25.75;19.75;;;14.00;96.70;;;;;;4928021;29;20054;-73
2023/01/01 01:35:00;;;;;;;29.98;21.63;;;14.00;96.70;;;;;;4919489;29;20394;-73
2023/01/01 01:37:28;;;;;;;28.63;20.65;;;14.00;96.70;;;;;;4927394;29;20082;-73
2023/01/01 01:39:56;;;;;;;31.30;22.45;;;14.00;96.70;;;;;;4901720;29;20573;-73
2023/01/01 01:42:25;;;;;;;27.67;21.08;;;14.00;96.70;;;;;;4883170;29;20158;-72
2023/01/01 01:44:56;;;;;;;29.92;22.25;;;14.00;96.70;;;;;;4910375;29;20063;-73
2023/01/01 01:47:31;;;;;;;30.05;22.70;;;14.00;96.70;;;;;;4892872;29;20048;-73
2023/01/01 01:50:05;;;;;;;28.00;21.50;;;14.00;96.70;;;;;;4891999;29;20079;-73
2023/01/01 01:52:36;;;;;;;35.70;22.65;;;14.00;96.70;;;;;;4909164;29;20095;-73
2023/01/01 01:55:07;;;;;;;29.75;21.40;;;13.90;96.70;;;;;;4900138;29;20051;-73
2023/01/01 01:57:37;;;;;;;27.63;21.38;;;13.90;96.70;;;;;;4892612;29;20059;-73
2023/01/01 02:00:08;;;;;;;25.23;20.20;;;14.00;96.70;;;;;;4913869;29;20054;-73
2023/01/01 02:02:47;;;;;;;29.95;20.25;;;13.90;96.70;;;;;;4894593;29;20052;-73
2023/01/01 02:05:17;;;;;;;26.20;20.95;;;13.90;96.70;;;;;;4901208;29;20139;-73
2023/01/01 02:07:46;;;;;;;28.58;20.90;;;14.00;96.70;;;;;;4918491;29;20098;-73
2023/01/01 02:10:15;;;;;;;28.48;20.40;;;14.00;96.70;;;;;;4908063;29;20047;-73
2023/01/01 02:12:43;;;;;;;27.45;20.05;;;14.00;96.70;;;;;;4906549;29;20044;-73
2023/01/01 02:15:11;;;;;;;28.08;19.73;;;14.00;96.70;;;;;;4903504;29;20062;-73
2023/01/01 02:17:50;;;;;;;27.20;19.42;;;14.00;96.70;;;;;;4891301;29;20772;-73
2023/01/01 02:20:36;;;;;;;25.70;20.63;;;14.00;96.70;;;;;;4891353;29;20052;-73
2023/01/01 02:23:30;;;;;;;25.85;18.85;;;14.00;96.70;;;;;;4906410;29;20561;-73
2023/01/01 02:26:23;;;;;;;27.80;20.33;;;14.00;96.70;;;;;;4884395;29;20473;-73
2023/01/01 02:29:00;;;;;;;28.23;20.25;;;13.90;96.70;;;;;;4917066;29;20051;-73
2023/01/01 02:31:33;;;;;;;28.00;19.60;;;13.90;96.70;;;;;;4899353;29;20525;-73
2023/01/01 02:34:06;;;;;;;31.60;21.65;;;14.00;96.70;;;;;;4921594;29;20438;-73
2023/01/01 02:36:39;;;;;;;26.25;20.33;;;13.90;96.70;;;;;;4909667;29;20044;-73
2023/01/01 02:39:09;;;;;;;32.33;22.38;;;13.90;96.70;;;;;;4915413;29;20082;-73
2023/01/01 02:41:40;;;;;;;26.52;19.92;;;13.90;96.70;;;;;;4924216;29;20554;-73
2023/01/01 02:44:11;;;;;;;30.30;21.55;;;13.90;96.70;;;;;;4905676;29;20060;-73
2023/01/01 02:46:39;;;;;;;27.80;20.13;;;13.90;96.70;;;;;;4889572;29;20522;-73
2023/01/01 02:49:08;;;;;;;29.65;20.60;;;13.90;96.70;;;;;;4918174;29;20047;-73
2023/01/01 02:51:51;;;;;;;27.80;21.27;;;13.90;96.70;;;;;;4904913;29;20048;-73
2023/01/01 02:54:28;;;;;;;28.25;21.13;;;13.90;96.70;;;;;;4917729;29;20044;-73
2023/01/01 02:57:05;;;;;;;30.65;20.73;;;13.90;96.70;;;;;;4906801;29;20580;-73
2023/01/01 03:02:36;;;;;;;31.02;20.45;;;13.80;96.70;;;;;;4926693;29;20500;-73
2023/01/01 03:05:13;;;;;;;27.48;21.30;;;13.90;96.70;;;;;;4909467;29;20123;-72
2023/01/01 03:07:50;;;;;;;26.75;19.90;;;13.90;96.70;;;;;;4891046;29;20060;-73
2023/01/01 03:10:23;;;;;;;24.27;19.48;;;13.90;96.70;;;;;;4895828;29;20055;-73
2023/01/01 03:12:55;;;;;;;27.27;20.23;;;13.90;96.70;;;;;;4915556;29;20044;-73
2023/01/01 03:15:29;;;;;;;27.60;20.55;;;13.90;96.70;;;;;;4925289;29;20036;-73
2023/01/01 03:18:04;;;;;;;29.40;20.48;;;13.90;96.70;;;;;;4926096;29;20040;-73
2023/01/01 03:20:35;;;;;;;27.98;20.75;;;13.90;96.70;;;;;;4925626;29;20414;-73
2023/01/01 03:23:08;;;;;;;25.95;20.27;;;13.90;96.70;;;;;;4930452;29;20047;-73
2023/01/01 03:25:41;;;;;;;32.40;21.02;;;13.90;96.70;;;;;;4929652;29;20048;-73
2023/01/01 03:28:12;;;;;;;26.40;19.95;;;13.90;96.70;;;;;;4930158;29;20528;-73
2023/01/01 03:30:44;;;;;;;27.00;18.98;;;13.90;96.70;;;;;;4906583;29;20071;-72
2023/01/01 03:33:17;;;;;;;27.38;20.50;;;13.90;96.70;;;;;;4921993;29;20071;-72
2023/01/01 03:35:50;;;;;;;28.58;20.33;;;13.90;96.70;;;;;;4912306;29;20142;-73
2023/01/01 03:38:21;;;;;;;29.88;19.88;;;13.90;96.70;;;;;;4919913;29;20043;-73
2023/01/01 03:40:54;;;;;;;27.45;19.75;;;13.90;96.70;;;;;;4894811;29;20530;-72
2023/01/01 03:43:35;;;;;;;30.77;19.80;;;13.80;96.70;;;;;;4918233;29;20051;-73
2023/01/01 03:46:07;;;;;;;27.05;18.73;;;13.80;96.70;;;;;;4902687;29;20047;-73
2023/01/01 03:48:55;;;;;;;25.40;18.92;;;13.80;96.70;;;;;;4920464;29;20058;-73
2023/01/01 03:51:43;;;;;;;22.13;16.92;;;13.80;96.70;;;;;;4927837;29;20503;-73
2023/01/01 03:54:20;;;;;;;22.75;17.10;;;13.80;96.70;;;;;;4902733;29;20135;-73
2023/01/01 03:56:57;;;;;;;22.25;16.80;;;13.80;96.70;;;;;;4894013;29;20052;-73
2023/01/01 03:59:32;;;;;;;21.77;15.07;;;13.80;96.70;;;;;;4910985;29;20135;-73
2023/01/01 04:02:06;;;;;;;19.85;14.43;;;13.70;96.70;;;;;;4893985;29;20059;-73
2023/01/01 04:04:34;;;;;;;21.50;14.27;;;13.70;96.70;;;;;;4886488;29;20055;-73
2023/01/01 04:07:02;;;;;;;18.83;13.70;;;13.70;96.70;;;;;;4923530;29;20830;-73
2023/01/01 04:09:47;;;;;;;17.42;13.15;;;13.70;96.70;;;;;;4928101;29;20052;-73
2023/01/01 04:12:16;;;;;;;15.93;11.48;;;13.70;96.70;;;;;;4919526;29;20048;-71
2023/01/01 04:14:44;;;;;;;15.95;10.68;;;13.60;96.70;;;;;;4910608;29;20055;-71
2023/01/01 04:17:14;;;;;;;15.57;10.00;;;13.60;96.70;;;;;;4922951;29;20075;-71
2023/01/01 04:19:41;;;;;;;13.95;9.77;;;13.60;96.70;;;;;;4908709;29;20047;-71
2023/01/01 04:22:09;;;;;;;12.00;9.30;;;13.60;96.70;;;;;;4918904;29;20054;-71
2023/01/01 04:24:37;;;;;;;13.27;9.65;;;13.60;96.70;;;;;;4894416;29;20050;-71
2023/01/01 04:27:05;;;;;;;16.10;10.40;;;13.60;96.70;;;;;;4901226;29;20047;-71
2023/01/01 04:29:34;;;;;;;11.65;8.68;;;13.50;96.70;;;;;;4893086;29;20131;-71
2023/01/01 04:32:02;;;;;;;12.90;9.38;;;13.50;96.70;;;;;;4892785;29;20515;-71
2023/01/01 04:34:32;;;;;;;12.80;9.50;;;13.40;96.70;;;;;;4898999;29;20103;-71
2023/01/01 04:36:59;;;;;;;12.32;9.10;;;13.40;96.70;;;;;;4893465;29;20099;-70
2023/01/01 04:39:27;;;;;;;13.38;8.80;;;13.40;96.70;;;;;;4893491;29;20067;-70
2023/01/01 04:41:55;;;;;;;12.65;8.93;;;13.40;96.70;;;;;;4920826;29;20043;-71
2023/01/01 04:44:23;;;;;;;13.52;8.95;;;13.40;96.70;;;;;;4902031;29;20063;-71
2023/01/01 04:46:51;;;;;;;12.13;9.38;;;13.40;96.70;;;;;;4927919;29;20044;-71
2023/01/01 04:49:26;;;;;;;12.80;9.13;;;13.40;96.70;;;;;;4911826;29;20048;-71
2023/01/01 04:51:56;;;;;;;12.32;8.70;;;13.30;96.70;;;;;;4919095;29;20067;-71
2023/01/01 04:54:23;;;;;;;13.10;9.40;;;13.30;96.70;;;;;;4903017;29;20051;-71
2023/01/01 04:56:51;;;;;;;11.68;8.70;;;13.20;96.70;;;;;;4899779;29;20052;-70
2023/01/01 04:59:19;;;;;;;13.05;8.98;;;13.20;96.70;;;;;;4920346;29;20075;-71
2023/01/01 05:01:47;;;;;;;13.40;8.93;;;13.20;96.70;;;;;;4927976;29;20513;-71
2023/01/01 05:04:15;;;;;;;10.82;8.98;;;13.20;96.70;;;;;;4902840;29;20047;-71
2023/01/01 05:06:43;;;;;;;14.63;9.35;;;13.10;96.70;;;;;;4918405;29;20603;-71
2023/01/01 05:09:13;;;;;;;13.00;8.40;;;13.10;96.70;;;;;;4894604;29;20137;-71
2023/01/01 05:11:41;;;;;;;10.48;7.63;;;13.10;96.70;;;;;;4902314;29;20320;-71
2023/01/01 05:14:08;;;;;;;10.55;8.00;;;13.10;96.70;;;;;;4896850;29;20135;-74
2023/01/01 05:16:38;;;;;;;11.00;7.93;;;13.00;96.70;;;;;;4880472;29;20052;-74
2023/01/01 05:19:07;;;;;;;11.93;7.65;;;13.00;96.70;;;;;;4896650;29;20044;-73
2023/01/01 05:21:37;;;;;;;11.60;7.72;;;13.00;96.70;;;;;;4919613;29;20050;-73
2023/01/01 05:24:07;;;;;;;8.95;7.03;;;12.90;96.70;;;;;;4924091;29;20059;-72
2023/01/01 05:26:38;;;;;;;8.48;6.35;;;12.90;96.70;;;;;;4922768;29;20044;-73
2023/01/01 05:29:06;;;;;;;9.52;7.18;;;12.90;96.70;;;;;;4927375;29;20047;-73
2023/01/01 05:31:42;;;;;;;13.90;7.70;;;12.90;96.70;;;;;;4920716;29;20047;-74
2023/01/01 05:34:10;;;;;;;11.23;7.70;;;12.80;96.70;;;;;;4899528;29;20293;-73
2023/01/01 05:36:38;;;;;;;10.48;7.93;;;12.80;96.70;;;;;;4896133;29;20047;-73
2023/01/01 05:39:07;;;;;;;14.30;8.15;;;12.80;96.70;;;;;;4917265;29;20056;-73
2023/01/01 05:41:37;;;;;;;11.18;8.25;;;12.70;96.70;;;;;;4910662;29;20466;-74
2023/01/01 05:44:07;;;;;;;12.82;8.75;;;12.70;96.70;;;;;;4917019;29;20099;-73
2023/01/01 05:46:36;;;;;;;12.57;8.23;;;12.70;96.70;;;;;;4890891;29;20052;-74
2023/01/01 05:49:04;;;;;;;11.48;8.60;;;12.70;96.70;;;;;;4894804;29;20055;-74
2023/01/01 05:51:32;;;;;;;14.68;8.30;;;12.60;96.70;;;;;;4927148;29;20099;-74
2023/01/01 05:53:59;;;;;;;26.45;8.88;;;12.60;96.70;;;;;;4901277;29;20051;-73
2023/01/01 05:56:27;;;;;;;31.83;9.48;;;12.60;96.70;;;;;;4910076;29;20079;-73
2023/01/01 05:58:56;;;;;;;17.27;9.20;;;12.60;96.70;;;;;;4905084;29;20430;-73
2023/01/01 06:01:27;;;;;;;27.58;8.80;;;12.60;96.70;;;;;;4919852;29;20039;-73
2023/01/01 06:03:56;;;;;;;19.92;9.48;;;12.60;96.70;;;;;;4927000;29;20059;-73
2023/01/01 06:06:27;;;;;;;25.05;10.30;;;12.60;96.70;;;;;;4897142;29;20511;-73
2023/01/01 06:08:56;;;;;;;24.00;10.70;;;12.60;96.70;;;;;;4906587;29;20051;-74
2023/01/01 06:11:25;;;;;;;27.42;12.02;;;12.60;96.70;;;;;;4918454;29;20810;-73
2023/01/01 06:13:54;;;;;;;18.63;10.45;;;12.60;96.70;;;;;;4924287;29;20044;-74
2023/01/01 06:16:24;;;;;;;18.13;11.38;;;12.60;96.70;;;;;;4899622;29;20075;-74
2023/01/01 06:18:52;;;;;;;25.35;12.60;;;12.60;96.70;;;;;;4903544;29;20047;-73
2023/01/01 06:21:22;;;;;;;18.40;12.63;;;12.60;96.70;;;;;;4911898;29;20062;-73
2023/01/01 06:23:50;;;;;;;22.10;12.68;;;12.60;96.70;;;;;;4899648;29;20143;-74
2023/01/01 06:26:20;;;;;;;19.02;12.30;;;12.60;96.70;;;;;;4907987;29;20150;-73
2023/01/01 06:28:49;;;;;;;22.70;11.57;;;12.60;96.70;;;;;;4919764;29;20058;-73
2023/01/01 06:31:18;;;;;;;19.20;12.00;;;12.60;96.70;;;;;;4882302;29;20619;-74
2023/01/01 06:33:49;;;;;;;20.90;11.90;;;12.60;96.70;;;;;;4923272;29;20524;-73
2023/01/01 06:36:20;;;;;;;17.17;12.18;;;12.70;96.70;;;;;;4926845;29;20046;-73
2023/01/01 06:38:49;;;;;;;21.52;11.77;;;12.70;96.70;;;;;;4907620;29;20044;-73
2023/01/01 06:41:19;;;;;;;15.60;11.25;;;12.70;96.70;;;;;;4919755;29;20048;-73
2023/01/01 06:43:47;;;;;;;16.10;11.73;;;12.60;96.70;;;;;;4896444;29;20155;-72
2023/01/01 06:46:18;;;;;;;15.90;10.30;;;12.60;96.70;;;;;;4894136;29;20060;-73
2023/01/01 06:48:48;;;;;;;15.07;9.90;;;12.60;96.70;;;;;;4910992;29;20536;-74
2023/01/01 06:51:19;;;;;;;11.98;8.60;;;12.50;96.70;;;;;;4894907;29;20507;-72
2023/01/01 06:53:48;;;;;;;16.73;9.98;;;12.40;96.70;;;;;;4923421;29;20071;-73
2023/01/01 06:56:17;;;;;;;11.80;8.80;;;12.40;96.70;;;;;;4922143;29;20067;-73
2023/01/01 06:58:45;;;;;;;10.55;8.55;;;12.40;96.70;;;;;;4909589;29;20091;-73
2023/01/01 07:01:15;;;;;;;13.68;9.07;;;12.50;96.70;;;;;;4928231;29;20047;-73
2023/01/01 07:03:51;;;;;;;11.80;8.50;;;12.40;96.70;;;;;;4921860;29;20051;-73
2023/01/01 07:06:19;;;;;;;14.13;9.40;;;12.40;96.70;;;;;;4927355;29;20122;-73
2023/01/01 07:08:48;;;;;;;12.88;8.38;;;12.50;96.70;;;;;;4908141;29;20053;-73
2023/01/01 07:11:17;;;;;;;11.27;8.30;;;12.40;96.70;;;;;;4898028;29;20462;-73
2023/01/01 07:13:45;;;;;;;12.60;8.10;;;12.40;96.70;;;;;;4903098;29;20047;-73
2023/01/01 07:16:13;;;;;;;11.85;8.32;;;12.50;96.70;;;;;;4920498;29;20059;-73
2023/01/01 07:18:42;;;;;;;14.55;8.30;;;12.50;96.70;;;;;;4894692;29;20091;-73
2023/01/01 07:21:29;;;;;;;14.98;8.65;;;12.50;96.70;;;;;;4898848;29;20474;-73
2023/01/01 07:23:58;;;;;;;12.05;8.10;;;12.40;96.70;;;;;;4909970;29;20111;-74
2023/01/01 07:26:28;;;;;;;10.68;7.38;;;12.40;96.70;;;;;;4912250;29;20051;-74
2023/01/01 07:28:57;;;;;;;9.48;7.43;;;12.40;96.70;;;;;;4903577;29;20055;-73
2023/01/01 07:31:35;;;;;;;11.30;7.45;;;12.40;96.70;;;;;;4907785;29;20634;-73
2023/01/01 07:34:03;;;;;;;8.02;6.35;;;12.40;96.70;;;;;;4894385;29;20111;-74
2023/01/01 07:36:33;;;;;;;7.72;6.00;;;12.40;96.70;;;;;;4895183;29;20150;-73
2023/01/01 07:39:02;;;;;;;9.95;6.65;;;12.40;96.70;;;;;;4891154;29;20070;-73
2023/01/01 07:41:30;;;;;;;7.57;6.70;;;12.40;96.70;;;;;;4923527;29;20053;-73
2023/01/01 07:43:59;;;;;;;13.13;6.80;;;12.40;96.70;;;;;;4906929;29;20064;-73
2023/01/01 07:46:27;;;;;;;7.20;6.10;;;12.40;96.70;;;;;;4898536;29;20044;-72
2023/01/01 07:48:58;;;;;;;6.28;5.47;;;12.40;96.70;;;;;;4881926;29;20543;-73
2023/01/01 07:51:26;;;;;;;6.45;5.68;;;12.50;96.70;;;;;;4891839;29;20566;-73
2023/01/01 07:53:56;;;;;;;8.55;5.32;;;12.40;96.70;;;;;;4903875;29;20182;-73
2023/01/01 07:56:33;;;;;;;6.30;5.70;;;12.40;96.70;;;;;;4909521;29;20052;-73
2023/01/01 07:59:02;;;;;;;6.60;5.22;;;12.40;96.70;;;;;;4901634;29;20103;-73
2023/01/01 08:01:33;;;;;;;7.43;5.03;;;12.50;96.70;;;;;;4909854;29;20044;-73
2023/01/01 08:04:02;;;;;;;5.65;4.68;;;12.60;96.70;;;;;;4909868;29;20517;-73
2023/01/01 08:06:30;;;;;;;6.07;4.78;;;12.70;96.70;;;;;;4910198;29;20700;-73
2023/01/01 08:09:00;;;;;;;6.88;5.53;;;12.70;96.70;;;;;;4899901;29;20489;-73
2023/01/01 08:11:28;;;;;;;6.63;5.28;;;12.80;96.70;;;;;;4897589;29;20048;-74
2023/01/01 08:13:56;;;;;;;7.65;5.25;;;12.80;96.70;;;;;;4896739;29;20464;-74
2023/01/01 08:16:25;;;;;;;5.57;4.53;;;12.80;96.70;;;;;;4889855;29;20053;-74
2023/01/01 08:18:53;;;;;;;6.50;4.45;;;12.70;96.70;;;;;;4908146;29;20119;-73
2023/01/01 08:21:22;;;;;;;5.63;4.85;;;12.70;96.70;;;;;;4896994;29;20057;-73
2023/01/01 08:23:50;;;;;;;5.75;4.72;;;12.70;96.70;;;;;;4897533;29;20036;-73
2023/01/01 08:26:28;;;;;;;5.32;4.65;;;12.80;96.70;;;;;;4897156;29;20048;-74
2023/01/01 08:28:57;;;;;;;5.47;4.95;;;12.80;96.70;;;;;;4900705;29;20048;-73
2023/01/01 08:31:25;;;;;;;5.82;4.82;;;12.80;96.70;;;;;;4907905;29;20052;-73
2023/01/01 08:33:54;;;;;;;4.85;4.35;;;12.80;96.70;;;;;;4906482;29;20519;-74
2023/01/01 08:36:23;;;;;;;4.75;4.30;;;12.80;96.70;;;;;;4895859;29;20824;-73
2023/01/01 08:38:51;;;;;;;5.50;5.00;;;12.90;96.70;;;;;;4892520;29;20075;-73
2023/01/01 08:41:21;;;;;;;7.10;5.15;;;12.90;96.70;;;;;;4907866;29;20051;-73
2023/01/01 08:43:49;;;;;;;5.63;5.03;;;12.90;96.70;;;;;;4912660;29;20063;-73
2023/01/01 08:46:18;;;;;;;4.97;4.47;;;12.90;96.70;;;;;;4917391;29;20431;-74
2023/01/01 08:48:46;;;;;;;6.07;5.30;;;13.00;96.70;;;;;;4923780;29;20056;-73
2023/01/01 08:51:14;;;;;;;7.32;5.85;;;13.10;96.70;;;;;;4902698;29;20092;-74
2023/01/01 08:53:43;;;;;;;7.88;5.90;;;13.20;96.70;;;;;;4894467;29;20472;-73
2023/01/01 08:56:19;;;;;;;8.20;5.20;;;13.30;96.70;;;;;;4910372;29;20570;-73
2023/01/01 08:58:49;;;;;;;6.35;4.80;;;13.40;96.70;;;;;;4899405;29;20142;-74
2023/01/01 09:01:20;;;;;;;6.07;5.25;;;13.40;96.70;;;;;;4923300;29;20046;-73
2023/01/01 09:03:49;;;;;;;6.65;4.90;;;13.40;96.70;;;;;;4928680;29;20066;-74
2023/01/01 09:06:17;;;;;;;6.82;5.10;;;13.40;96.70;;;;;;4927745;29;20043;-73
2023/01/01 09:08:46;;;;;;;6.85;4.47;;;13.50;96.70;;;;;;4886275;29;20142;-74
2023/01/01 09:11:22;;;;;;;7.97;5.25;;;13.60;96.70;;;;;;4921458;29;20059;-73
2023/01/01 09:13:52;;;;;;;6.30;5.25;;;13.60;96.70;;;;;;4901255;29;20060;-73
2023/01/01 09:16:22;;;;;;;6.03;5.03;;;13.70;96.70;;;;;;4913434;29;20416;-74
2023/01/01 09:18:50;;;;;;;5.78;4.85;;;13.80;96.70;;;;;;4926053;29;20054;-73
2023/01/01 09:21:18;;;;;;;8.30;6.10;;;13.80;96.70;;;;;;4927777;29;20062;-73
2023/01/01 09:23:47;;;;;;;7.88;5.78;;;13.90;96.70;;;;;;4928216;29;20109;-73
2023/01/01 09:26:16;;;;;;;8.98;6.30;;;14.00;96.70;;;;;;4902400;29;20099;-73
2023/01/01 09:28:45;;;;;;;6.05;5.15;;;14.00;96.70;;;;;;4910837;29;20759;-74
2023/01/01 09:31:15;;;;;;;8.38;6.00;;;14.10;96.70;;;;;;4918064;29;20051;-73
2023/01/01 09:33:43;;;;;;;9.80;6.57;;;14.10;96.70;;;;;;4893945;29;20048;-73
2023/01/01 09:36:13;;;;;;;7.78;6.82;;;14.20;96.70;;;;;;4927721;29;20458;-73
2023/01/01 09:38:41;;;;;;;19.05;16.42;;;14.10;96.70;;;;;;4922094;29;20052;-73
2023/01/01 09:41:20;;;;;;;15.45;13.15;;;14.10;96.70;;;;;;4891744;29;20040;-73
2023/01/01 09:43:58;;;;;;;14.50;10.10;;;14.20;96.70;;;;;;4917692;29;20066;-73
2023/01/01 09:46:28;;;;;;;10.10;8.68;;;14.10;96.70;;;;;;4895082;29;20056;-73
2023/01/01 09:49:04;;;;;;;15.30;8.05;;;14.00;96.70;;;;;;4895348;29;20106;-73
2023/01/01 09:51:36;;;;;;;11.98;8.25;;;14.00;96.70;;;;;;4917146;29;20521;-73
2023/01/01 09:54:24;;;;;;;10.85;7.28;;;14.00;96.70;;;;;;4924430;29;20107;-73
2023/01/01 09:56:57;;;;;;;8.65;6.60;;;14.00;96.70;;;;;;4892079;29;20044;-73
2023/01/01 09:59:25;;;;;;;8.43;5.35;;;14.00;96.70;;;;;;4891717;29;20099;-73
2023/01/01 10:02:01;;;;;;;10.00;5.43;;;14.00;96.70;;;;;;4916601;29;20154;-73
2023/01/01 10:04:47;;;;;;;7.13;5.45;;;14.00;96.70;;;;;;4896530;29;20621;-73
2023/01/01 10:07:25;;;;;;;6.97;5.15;;;14.10;96.70;;;;;;4900561;29;20143;-73
2023/01/01 10:10:01;;;;;;;9.10;5.03;;;14.10;96.70;;;;;;4907958;29;20063;-75
2023/01/01 10:12:36;;;;;;;5.60;4.22;;;14.20;96.70;;;;;;4894141;29;20539;-73
2023/01/01 10:15:13;;;;;;;6.90;4.78;;;14.20;96.70;;;;;;4900235;29;20158;-73
2023/01/01 10:17:44;;;;;;;;;;;14.30;96.70;;;;;;4894847;29;20044;-74
2023/01/01 10:20:19;;;;;;;8.13;4.70;;;14.30;96.70;;;;;;4899378;29;20364;-73
2023/01/01 10:22:52;;;;;;;5.80;4.65;;;14.30;96.70;;;;;;4897583;29;20051;-73
2023/01/01 10:25:23;;;;;;;8.45;5.07;;;14.40;96.70;;;;;;4916345;29;20443;-74
2023/01/01 10:27:57;;;;;;;5.53;4.30;;;14.40;96.70;;;;;;4925522;29;20130;-73
2023/01/01 10:30:28;;;;;;;7.05;4.95;;;14.40;96.70;;;;;;4906818;29;20052;-74
2023/01/01 10:32:58;;;;;;;6.28;4.82;;;14.40;96.70;;;;;;4895109;29;20052;-74
2023/01/01 10:35:34;;;;;;;8.73;6.05;;;14.40;96.70;;;;;;4882498;29;20138;-73
2023/01/01 10:38:04;;;;;;;7.75;4.13;;;14.50;96.70;;;;;;4908546;29;20058;-74
2023/01/01 10:40:33;;;;;;;7.63;4.35;;;14.50;96.70;;;;;;4907955;29;20138;-73
2023/01/01 10:43:02;;;;;;;5.80;3.35;;;14.60;96.70;;;;;;4920565;29;20060;-73
2023/01/01 10:45:34;;;;;;;8.13;3.92;;;14.70;96.70;;;;;;4905726;29;20076;-73
2023/01/01 10:48:17;;;;;;;9.10;3.45;;;14.70;96.70;;;;;;4879143;29;20064;-74
2023/01/01 10:50:49;;;;;;;6.57;3.25;;;14.80;96.70;;;;;;4906008;29;20426;-73
2023/01/01 10:53:24;;;;;;;5.20;2.85;;;14.80;96.70;;;;;;4908263;29;20052;-73
2023/01/01 10:56:02;;;;;;;5.55;2.97;;;14.90;96.70;;;;;;4892244;29;20084;-73
2023/01/01 10:58:39;;;;;;;6.47;3.15;;;15.00;96.70;;;;;;4898275;29;20131;-73
2023/01/01 11:01:10;;;;;;;5.63;3.00;;;15.00;96.70;;;;;;4888725;29;20049;-73
2023/01/01 11:04:17;;;;;;;4.75;2.97;;;15.10;96.70;;;;;;4896553;29;20049;-73
2023/01/01 11:06:46;;;;;;;5.90;3.20;;;15.00;96.70;;;;;;4891901;29;20052;-73
2023/01/01 11:09:22;;;;;;;5.93;3.20;;;15.00;96.70;;;;;;4905058;29;20044;-73
2023/01/01 11:12:17;;;;;;;7.97;3.40;;;15.00;96.70;;;;;;4900641;29;20435;-73
2023/01/01 11:15:06;;;;;;;5.40;3.85;;;15.00;96.70;;;;;;4888656;29;20127;-73
2023/01/01 11:17:36;;;;;;;4.93;3.22;;;15.10;96.70;;;;;;4894962;29;20047;-73
2023/01/01 11:20:15;;;;;;;7.03;3.22;;;15.10;96.70;;;;;;4895844;29;20151;-73
2023/01/01 11:22:46;;;;;;;5.07;3.40;;;15.20;96.70;;;;;;4873153;29;20059;-73
2023/01/01 11:25:20;;;;;;;9.18;3.97;;;15.20;96.70;;;;;;4902704;29;20621;-73
2023/01/01 11:27:49;;;;;;;8.38;3.75;;;15.20;96.70;;;;;;4907629;29;20535;-72
2023/01/01 11:30:36;;;;;;;5.00;3.95;;;15.30;96.70;;;;;;4904361;29;20166;-73
2023/01/01 11:33:09;;;;;;;8.35;4.10;;;15.30;96.70;;;;;;4892876;29;20414;-73
2023/01/01 11:35:49;;;;;;;6.10;3.78;;;15.30;96.70;;;;;;4902161;29;20666;-73
2023/01/01 11:38:23;;;;;;;7.32;4.90;;;15.40;96.70;;;;;;4909659;29;20566;-73
2023/01/01 11:41:03;;;;;;;7.05;4.00;;;15.40;96.70;;;;;;4903053;29;20491;-73
2023/01/01 11:43:38;;;;;;;7.85;4.53;;;15.40;96.70;;;;;;4900059;29;20053;-73
2023/01/01 11:46:09;;;;;;;7.32;4.07;;;15.50;96.70;;;;;;4928221;29;20134;-73
2023/01/01 11:48:41;;;;;;;9.02;5.03;;;15.50;96.70;;;;;;4893709;29;20059;-73
2023/01/01 11:51:29;;;;;;;13.93;6.28;;;15.50;96.70;;;;;;4924007;29;20078;-73
2023/01/01 11:54:21;;;;;;;9.13;4.80;;;15.50;96.70;;;;;;4911901;29;20044;-73
2023/01/01 11:56:54;;;;;;;7.80;4.13;;;15.50;96.70;;;;;;4907790;29;20060;-73
2023/01/01 11:59:27;;;;;;;6.53;4.30;;;15.60;96.70;;;;;;4917024;29;20634;-73
2023/01/01 12:02:01;;;;;;;9.85;5.75;;;15.60;96.70;;;;;;4920982;29;20051;-73
2023/01/01 12:04:33;;;;;;;5.95;4.28;;;15.60;96.70;;;;;;4904818;29;20617;-74
2023/01/01 12:07:06;;;;;;;8.63;4.68;;;15.70;96.70;;;;;;4906286;29;20039;-74
2023/01/01 12:09:41;;;;;;;5.65;3.50;;;15.70;96.70;;;;;;4903866;29;20665;-74
2023/01/01 12:12:14;;;;;;;6.50;3.83;;;15.80;96.70;;;;;;4893432;29;20056;-74
2023/01/01 12:14:50;;;;;;;6.75;3.53;;;15.90;96.70;;;;;;4897963;29;20052;-74
2023/01/01 12:17:23;;;;;;;8.43;4.55;;;16.00;96.70;;;;;;4906993;29;20498;-74
2023/01/01 12:19:58;;;;;;;9.98;4.53;;;16.00;96.70;;;;;;4917474;29;20047;-75
2023/01/01 12:22:28;;;;;;;8.90;3.87;;;16.00;96.70;;;;;;4910797;29;20498;-74
2023/01/01 12:24:57;;;;;;;8.93;4.13;;;16.00;96.70;;;;;;4903002;29;20588;-74
2023/01/01 12:27:40;;;;;;;9.43;4.45;;;16.00;96.70;;;;;;4929254;29;20092;-74
2023/01/01 12:30:18;;;;;;;6.93;4.10;;;16.10;96.70;;;;;;4902983;29;20056;-74
2023/01/01 12:33:34;;;;;;;6.50;4.10;;;16.10;96.70;;;;;;4895580;29;20138;-75
2023/01/01 12:36:14;;;;;;;14.15;7.22;;;16.10;96.70;;;;;;4867205;29;20044;-74
2023/01/01 12:39:34;;;;;;;11.85;8.07;;;16.20;96.70;;;;;;4902288;29;20052;-74
2023/01/01 12:42:13;;;;;;;14.77;8.57;;;16.20;96.70;;;;;;4913363;29;20047;-74
2023/01/01 12:44:51;;;;;;;14.60;9.00;;;16.30;96.70;;;;;;4896365;29;20064;-75
2023/01/01 12:47:34;;;;;;;22.75;17.40;;;16.30;96.70;;;;;;4918309;29;20048;-74
2023/01/01 12:50:11;;;;;;;11.98;8.65;;;16.30;96.70;;;;;;4899896;29;20059;-74
2023/01/01 12:52:53;;;;;;;15.43;7.40;;;16.30;96.70;;;;;;4888816;29;20547;-74
2023/01/01 12:55:41;;;;;;;8.95;5.90;;;16.40;96.70;;;;;;4910423;29;20063;-75
2023/01/01 12:58:30;;;;;;;10.82;5.50;;;16.30;96.70;;;;;;4921438;29;20521;-74
2023/01/01 13:01:00;;;;;;;12.80;7.25;;;16.30;96.70;;;;;;4926067;29;20043;-74
2023/01/01 13:03:32;;;;;;;12.90;6.38;;;16.40;96.70;;;;;;4910014;29;20048;-75
2023/01/01 13:06:10;;;;;;;10.50;7.10;;;16.60;96.70;;;;;;4881679;29;20052;-74
2023/01/01 13:08:40;;;;;;;13.43;7.65;;;16.70;96.70;;;;;;4919866;29;20123;-74